createdAt,value
2023-02-28T00:01:35.639Z,-0.85
2023-02-28T00:04:03.815Z,-1.06
2023-02-28T00:06:31.612Z,-1.02
2023-02-28T00:08:59.352Z,-1.06
2023-02-28T00:11:28.475Z,-0.83
2023-02-28T00:13:57.382Z,-0.93
2023-02-28T00:16:25.260Z,-0.90
2023-02-28T00:18:54.814Z,-0.77
2023-02-28T00:21:23.621Z,-0.79
2023-02-28T00:23:51.452Z,-0.80
2023-02-28T00:26:21.963Z,-0.74
2023-02-28T00:28:50.084Z,-0.88
2023-02-28T00:31:18.770Z,-1.00
2023-02-28T00:33:46.642Z,-0.82
2023-02-28T00:36:14.425Z,-0.71
2023-02-28T00:38:43.042Z,-0.80
2023-02-28T00:41:11.465Z,-0.46
2023-02-28T00:43:41.246Z,-0.67
2023-02-28T00:46:10.412Z,-0.71
2023-02-28T00:48:39.276Z,-0.60
2023-02-28T00:51:08.810Z,-0.59
2023-02-28T00:53:38.298Z,-0.60
2023-02-28T00:56:07.572Z,-0.48
2023-02-28T00:58:37.170Z,-0.46
2023-02-28T01:01:06.955Z,-0.61
2023-02-28T01:03:35.784Z,-0.32
2023-02-28T01:06:03.647Z,-0.42
2023-02-28T01:08:32.645Z,-0.48
2023-02-28T01:11:15.390Z,-0.48
2023-02-28T01:13:45.814Z,-0.59
2023-02-28T01:16:16.637Z,-0.37
2023-02-28T01:18:45.892Z,-0.30
2023-02-28T01:21:19.747Z,-0.56
2023-02-28T01:23:49.640Z,-0.63
2023-02-28T01:26:25.001Z,-0.42
2023-02-28T01:28:55.128Z,-0.49
2023-02-28T01:31:24.210Z,-0.49
2023-02-28T01:33:53.268Z,-0.57
2023-02-28T01:36:25.623Z,-0.49
2023-02-28T01:38:54.359Z,-0.43
2023-02-28T01:41:33.311Z,-0.35
2023-02-28T01:44:59.946Z,-0.41
2023-02-28T01:47:40.000Z,-0.29
2023-02-28T01:50:18.023Z,-0.15
2023-02-28T01:52:48.850Z,-0.26
2023-02-28T01:55:20.595Z,-0.43
2023-02-28T01:57:56.610Z,-0.24
2023-02-28T02:00:28.499Z,-0.24
2023-02-28T02:03:03.212Z,-0.23
2023-02-28T02:05:33.281Z,-0.20
2023-02-28T02:08:13.499Z,-0.35
2023-02-28T02:10:55.113Z,-0.10
2023-02-28T02:14:15.505Z,-0.35
2023-02-28T02:17:12.825Z,-0.14
2023-02-28T02:20:36.066Z,-0.12
2023-02-28T02:23:48.866Z,-0.13
2023-02-28T02:26:38.677Z,-0.04
2023-02-28T02:30:08.506Z,-0.03
2023-02-28T02:33:46.409Z,-0.12
2023-02-28T02:36:22.473Z,-0.01
2023-02-28T02:40:00.943Z,-0.09
2023-02-28T02:42:43.895Z,-0.22
2023-02-28T02:45:29.384Z,-0.12
2023-02-28T02:48:01.489Z,-0.08
2023-02-28T02:50:42.734Z,-0.06
2023-02-28T02:53:12.828Z,-0.12
2023-02-28T02:55:48.345Z,-0.12
2023-02-28T02:58:23.635Z,-0.03
2023-02-28T03:01:00.420Z,-0.04
2023-02-28T03:03:30.969Z,0.03
2023-02-28T03:06:02.557Z,-0.32
2023-02-28T03:08:39.166Z,0.09
2023-02-28T03:11:15.973Z,0.11
2023-02-28T03:14:27.366Z,-0.13
2023-02-28T03:17:16.236Z,0.03
2023-02-28T03:20:08.147Z,-0.13
2023-02-28T03:23:16.372Z,-0.04
2023-02-28T03:26:09.225Z,0.07
2023-02-28T03:28:50.826Z,0.18
2023-02-28T03:31:39.128Z,-0.11
2023-02-28T03:34:25.828Z,0.10
2023-02-28T03:37:00.786Z,-0.01
2023-02-28T03:39:43.379Z,-0.20
2023-02-28T03:42:23.324Z,-0.22
2023-02-28T03:45:10.377Z,-0.09
2023-02-28T03:48:06.741Z,0.19
2023-02-28T03:50:47.060Z,0.15
2023-02-28T03:53:19.372Z,-0.04
2023-02-28T03:55:59.552Z,0.15
2023-02-28T03:58:45.340Z,0.07
2023-02-28T04:01:29.894Z,0.08
2023-02-28T04:03:59.665Z,0.09
2023-02-28T04:06:28.442Z,0.05
2023-02-28T04:08:57.096Z,-0.06
2023-02-28T04:11:56.742Z,0.04
2023-02-28T04:14:25.866Z,0.02
2023-02-28T04:16:53.868Z,0.06
2023-02-28T04:19:23.507Z,-0.08
2023-02-28T04:21:55.083Z,-0.09
2023-02-28T04:24:29.101Z,-0.11
2023-02-28T04:26:59.498Z,-0.13
2023-02-28T04:29:31.472Z,-0.20
2023-02-28T04:32:02.998Z,-0.09
2023-02-28T04:34:33.917Z,-0.11
2023-02-28T04:37:13.418Z,0.15
2023-02-28T04:39:43.949Z,0.14
2023-02-28T04:42:13.259Z,0.18
2023-02-28T04:44:41.110Z,0.29
2023-02-28T04:47:09.832Z,0.21
2023-02-28T04:49:37.585Z,0.08
2023-02-28T04:52:05.604Z,-0.03
2023-02-28T04:54:34.301Z,-0.04
2023-02-28T04:57:02.673Z,-0.01
2023-02-28T04:59:30.438Z,-0.13
2023-02-28T05:01:58.208Z,-0.16
2023-02-28T05:04:27.008Z,-0.12
2023-02-28T05:06:54.809Z,0.09
2023-02-28T05:09:22.563Z,0.02
2023-02-28T05:11:50.302Z,-0.11
2023-02-28T05:14:18.066Z,-0.06
2023-02-28T05:16:45.868Z,0.08
2023-02-28T05:19:14.536Z,0.01
2023-02-28T05:21:55.114Z,-0.13
2023-02-28T05:24:26.012Z,-0.12
2023-02-28T05:26:55.897Z,0.03
2023-02-28T05:29:24.769Z,-0.02
2023-02-28T05:31:52.795Z,-0.09
2023-02-28T05:34:20.665Z,-0.10
2023-02-28T05:36:48.513Z,0.17
2023-02-28T05:39:16.416Z,0.03
2023-02-28T05:41:45.149Z,0.02
2023-02-28T05:44:13.586Z,0.25
2023-02-28T05:46:42.357Z,0.14
2023-02-28T05:49:10.165Z,0.24
2023-02-28T05:51:40.953Z,0.06
2023-02-28T05:54:09.921Z,0.03
2023-02-28T05:56:40.215Z,0.17
2023-02-28T05:59:08.590Z,0.19
2023-02-28T06:01:49.139Z,0.12
2023-02-28T06:04:31.616Z,0.20
2023-02-28T06:07:01.052Z,0.34
2023-02-28T06:09:29.189Z,0.31
2023-02-28T06:12:00.836Z,0.33
2023-02-28T06:14:28.638Z,0.43
2023-02-28T06:16:58.981Z,0.73
2023-02-28T06:19:27.647Z,0.48
2023-02-28T06:21:58.000Z,0.50
2023-02-28T06:24:32.345Z,0.64
2023-02-28T06:27:06.108Z,1.00
2023-02-28T06:29:37.021Z,0.93
2023-02-28T06:32:04.951Z,1.33
2023-02-28T06:34:37.646Z,1.39
2023-02-28T06:37:05.542Z,1.48
2023-02-28T06:39:34.375Z,1.59
2023-02-28T06:42:02.116Z,1.65
2023-02-28T06:44:36.497Z,1.84
2023-02-28T06:47:07.198Z,1.94
2023-02-28T06:49:38.013Z,1.98
2023-02-28T06:52:06.902Z,2.15
2023-02-28T06:54:34.659Z,2.22
2023-02-28T06:57:03.335Z,2.15
2023-02-28T06:59:31.127Z,2.11
2023-02-28T07:02:00.198Z,1.53
2023-02-28T07:04:29.575Z,2.30
2023-02-28T07:06:58.400Z,2.29
2023-02-28T07:09:31.115Z,2.05
2023-02-28T07:11:58.912Z,2.26
2023-02-28T07:14:27.122Z,2.49
2023-02-28T07:16:54.804Z,2.25
2023-02-28T07:19:22.599Z,2.22
2023-02-28T07:21:52.207Z,2.06
2023-02-28T07:24:21.903Z,2.10
2023-02-28T07:26:49.617Z,2.35
2023-02-28T07:29:17.400Z,2.42
2023-02-28T07:31:45.228Z,2.37
2023-02-28T07:34:13.313Z,2.17
2023-02-28T07:36:42.037Z,2.35
2023-02-28T07:39:11.335Z,2.30
2023-02-28T07:41:44.397Z,2.37
2023-02-28T07:44:13.220Z,2.40
2023-02-28T07:46:41.100Z,2.57
2023-02-28T07:49:09.832Z,2.78
2023-02-28T07:51:37.750Z,2.53
2023-02-28T07:54:06.732Z,2.84
2023-02-28T07:56:34.642Z,2.73
2023-02-28T07:59:02.793Z,3.00
2023-02-28T08:01:31.785Z,3.09
2023-02-28T08:04:00.631Z,3.04
2023-02-28T08:06:28.531Z,3.25
2023-02-28T08:08:57.726Z,3.34
2023-02-28T08:11:26.413Z,3.06
2023-02-28T08:13:56.890Z,3.48
2023-02-28T08:16:24.691Z,3.40
2023-02-28T08:18:54.312Z,3.12
2023-02-28T08:21:23.352Z,3.33
2023-02-28T08:23:52.789Z,3.06
2023-02-28T08:26:22.553Z,3.54
2023-02-28T08:28:50.864Z,3.59
2023-02-28T08:31:19.862Z,3.40
2023-02-28T08:33:49.760Z,3.67
2023-02-28T08:36:18.867Z,3.50
2023-02-28T08:38:48.537Z,3.56
2023-02-28T08:41:16.346Z,3.71
2023-02-28T08:43:45.435Z,3.65
2023-02-28T08:46:15.463Z,3.79
2023-02-28T08:48:44.966Z,3.56
2023-02-28T08:51:22.559Z,3.43
2023-02-28T08:53:50.565Z,4.16
2023-02-28T08:56:19.671Z,4.40
2023-02-28T08:58:50.411Z,4.59
2023-02-28T09:01:29.547Z,4.51
2023-02-28T09:03:59.194Z,3.96
2023-02-28T09:06:29.934Z,4.11
2023-02-28T09:09:04.280Z,4.70
2023-02-28T09:11:32.153Z,4.43
2023-02-28T09:14:01.728Z,4.16
2023-02-28T09:16:29.612Z,3.97
2023-02-28T09:18:57.507Z,4.19
2023-02-28T09:21:27.934Z,4.04
2023-02-28T09:23:56.816Z,4.25
2023-02-28T09:26:34.929Z,4.78
2023-02-28T09:29:12.348Z,4.79
2023-02-28T09:31:41.240Z,4.60
2023-02-28T09:34:09.202Z,4.67
2023-02-28T09:36:45.502Z,4.40
2023-02-28T09:39:16.727Z,4.52
2023-02-28T09:41:52.499Z,4.38
2023-02-28T09:44:46.007Z,4.34
2023-02-28T09:47:49.098Z,4.64
2023-02-28T09:50:37.202Z,4.62
2023-02-28T09:53:28.138Z,5.58
2023-02-28T09:56:02.937Z,6.13
2023-02-28T09:58:55.185Z,6.40
2023-02-28T10:01:52.478Z,5.89
2023-02-28T10:04:52.858Z,5.43
2023-02-28T10:08:36.840Z,5.24
2023-02-28T10:11:16.258Z,5.41
2023-02-28T10:14:13.386Z,5.41
2023-02-28T10:16:58.215Z,5.37
2023-02-28T10:19:52.755Z,5.93
2023-02-28T10:22:46.323Z,5.82
2023-02-28T10:25:28.449Z,5.91
2023-02-28T10:28:14.194Z,6.24
2023-02-28T10:30:51.961Z,5.52
2023-02-28T10:33:35.392Z,5.50
2023-02-28T10:36:10.854Z,5.21
2023-02-28T10:38:41.699Z,5.37
2023-02-28T10:41:35.862Z,5.32
2023-02-28T10:44:23.478Z,5.46
2023-02-28T10:46:53.156Z,5.58
2023-02-28T10:49:30.244Z,5.69
2023-02-28T10:52:02.459Z,5.43
2023-02-28T10:54:36.505Z,5.68
2023-02-28T10:57:26.338Z,5.99
2023-02-28T11:00:20.012Z,5.71
2023-02-28T11:02:47.859Z,5.88
2023-02-28T11:05:31.601Z,6.18
2023-02-28T11:08:17.680Z,6.38
2023-02-28T11:11:02.146Z,6.54
2023-02-28T11:13:36.930Z,6.19
2023-02-28T11:16:13.151Z,5.91
2023-02-28T11:18:56.928Z,5.80
2023-02-28T11:21:41.431Z,5.70
2023-02-28T11:24:31.527Z,5.29
2023-02-28T11:26:59.558Z,5.38
2023-02-28T11:29:33.666Z,5.37
2023-02-28T11:32:23.456Z,5.36
2023-02-28T11:35:37.567Z,5.66
2023-02-28T11:38:14.029Z,5.71
2023-02-28T11:41:08.918Z,5.62
2023-02-28T11:44:05.299Z,6.08
2023-02-28T11:46:51.412Z,5.57
2023-02-28T11:50:04.181Z,5.59
2023-02-28T11:53:12.238Z,5.75
2023-02-28T11:56:24.736Z,5.62
2023-02-28T11:59:39.768Z,5.62
2023-02-28T12:02:20.065Z,5.50
2023-02-28T12:05:32.414Z,5.64
2023-02-28T12:08:46.618Z,5.57
2023-02-28T12:12:20.515Z,5.59
2023-02-28T12:15:26.368Z,5.91
2023-02-28T12:18:19.809Z,6.25
2023-02-28T12:21:03.113Z,6.28
2023-02-28T12:24:25.645Z,6.51
2023-02-28T12:26:56.865Z,6.60
2023-02-28T12:29:41.635Z,6.35
2023-02-28T12:32:54.448Z,6.75
2023-02-28T12:35:36.409Z,6.44
2023-02-28T12:38:45.762Z,6.43
2023-02-28T12:41:28.327Z,6.25
2023-02-28T12:44:15.634Z,6.45
2023-02-28T12:46:53.295Z,6.02
2023-02-28T12:49:50.971Z,6.14
2023-02-28T12:52:40.560Z,6.31
2023-02-28T12:55:42.323Z,6.15
2023-02-28T12:58:29.123Z,5.81
2023-02-28T13:01:44.781Z,5.82
2023-02-28T13:04:34.615Z,6.25
2023-02-28T13:07:26.698Z,6.24
2023-02-28T13:10:01.147Z,6.11
2023-02-28T13:12:30.499Z,5.94
2023-02-28T13:15:13.610Z,6.45
2023-02-28T13:17:42.860Z,6.42
2023-02-28T13:20:27.646Z,6.59
2023-02-28T13:22:58.427Z,6.24
2023-02-28T13:25:48.201Z,5.94
2023-02-28T13:28:54.314Z,6.22
2023-02-28T13:31:22.146Z,6.22
2023-02-28T13:34:00.521Z,6.67
2023-02-28T13:36:32.805Z,6.31
2023-02-28T13:39:37.868Z,6.41
2023-02-28T13:42:46.211Z,6.26
2023-02-28T13:45:13.871Z,6.07
2023-02-28T13:47:56.551Z,5.97
2023-02-28T13:50:39.976Z,5.98
2023-02-28T13:53:16.926Z,6.46
2023-02-28T13:56:08.123Z,6.35
2023-02-28T13:59:26.108Z,6.04
2023-02-28T14:02:21.370Z,6.08
2023-02-28T14:08:29.534Z,5.89
2023-02-28T14:11:24.347Z,6.11
2023-02-28T14:13:53.046Z,5.82
2023-02-28T14:16:30.702Z,6.13
2023-02-28T14:19:10.659Z,6.06
2023-02-28T14:21:59.413Z,5.62
2023-02-28T14:25:12.099Z,5.68
2023-02-28T14:28:43.297Z,5.69
2023-02-28T14:31:26.718Z,5.30
2023-02-28T14:34:44.476Z,5.41
2023-02-28T14:37:21.884Z,5.72
2023-02-28T14:39:50.818Z,5.58
2023-02-28T14:42:39.077Z,5.48
2023-02-28T14:45:19.422Z,5.53
2023-02-28T14:47:47.762Z,5.43
2023-02-28T14:50:27.851Z,5.23
2023-02-28T14:52:56.842Z,5.40
2023-02-28T14:55:37.257Z,5.30
2023-02-28T14:58:19.051Z,5.33
2023-02-28T15:00:54.862Z,5.57
2023-02-28T15:03:39.723Z,5.24
2023-02-28T15:06:19.130Z,5.05
2023-02-28T15:08:47.371Z,5.41
2023-02-28T15:11:22.337Z,5.13
2023-02-28T15:13:56.557Z,5.12
2023-02-28T15:16:42.566Z,5.25
2023-02-28T15:19:32.591Z,5.31
2023-02-28T15:22:13.529Z,5.26
2023-02-28T15:24:54.575Z,5.67
2023-02-28T15:27:33.894Z,5.69
2023-02-28T15:30:35.342Z,5.56
2023-02-28T15:33:17.976Z,5.26
2023-02-28T15:35:47.024Z,5.09
2023-02-28T15:38:28.037Z,5.22
2023-02-28T15:40:59.665Z,5.02
2023-02-28T15:43:40.436Z,5.05
2023-02-28T15:46:16.252Z,4.81
2023-02-28T15:48:48.684Z,4.98
2023-02-28T15:51:38.523Z,4.94
2023-02-28T15:54:25.625Z,5.18
2023-02-28T15:57:02.298Z,5.13
2023-02-28T15:59:33.132Z,5.30
2023-02-28T16:02:11.840Z,5.01
2023-02-28T16:05:07.250Z,5.01
2023-02-28T16:07:44.556Z,4.89
2023-02-28T16:10:17.678Z,4.97
2023-02-28T16:12:47.468Z,5.07
2023-02-28T16:15:27.979Z,4.72
2023-02-28T16:17:59.643Z,4.72
2023-02-28T16:20:32.262Z,4.64
2023-02-28T16:23:02.638Z,4.83
2023-02-28T16:25:44.926Z,4.77
2023-02-28T16:28:37.893Z,4.88
2023-02-28T16:31:09.179Z,4.90
2023-02-28T16:33:38.676Z,4.79
2023-02-28T16:36:13.755Z,4.77
2023-02-28T16:38:42.488Z,4.91
2023-02-28T16:41:28.417Z,4.89
2023-02-28T16:44:01.440Z,4.55
2023-02-28T16:46:36.509Z,4.87
2023-02-28T16:49:06.401Z,4.68
2023-02-28T16:51:35.964Z,4.87
2023-02-28T16:54:05.984Z,4.62
2023-02-28T16:56:36.431Z,4.68
2023-02-28T16:59:05.110Z,4.81
2023-02-28T17:01:34.523Z,4.88
2023-02-28T17:04:03.583Z,4.96
2023-02-28T17:06:32.819Z,4.86
2023-02-28T17:09:00.853Z,4.86
2023-02-28T17:11:30.777Z,4.95
2023-02-28T17:13:59.628Z,4.84
2023-02-28T17:16:35.981Z,4.73
2023-02-28T17:19:10.295Z,4.83
2023-02-28T17:21:42.744Z,4.93
2023-02-28T17:24:22.118Z,4.84
2023-02-28T17:27:02.506Z,4.61
2023-02-28T17:29:32.046Z,4.72
2023-02-28T17:32:03.169Z,4.73
2023-02-28T17:34:38.362Z,4.80
2023-02-28T17:37:09.994Z,4.60
2023-02-28T17:39:38.716Z,4.72
2023-02-28T17:42:09.132Z,4.80
2023-02-28T17:44:38.886Z,4.73
2023-02-28T17:47:11.024Z,4.77
2023-02-28T17:49:40.584Z,4.80
2023-02-28T17:52:11.391Z,4.56
2023-02-28T17:54:40.340Z,4.73
2023-02-28T17:57:17.485Z,4.61
2023-02-28T17:59:47.416Z,4.71
2023-02-28T18:02:18.024Z,4.48
2023-02-28T18:04:47.488Z,4.50
2023-02-28T18:07:15.284Z,4.71
2023-02-28T18:09:44.773Z,4.62
2023-02-28T18:12:14.262Z,4.56
2023-02-28T18:14:43.704Z,4.58
2023-02-28T18:17:13.967Z,4.47
2023-02-28T18:19:43.687Z,4.65
2023-02-28T18:22:12.437Z,4.79
2023-02-28T18:24:41.190Z,4.71
2023-02-28T18:27:11.780Z,4.57
2023-02-28T18:29:41.796Z,4.76
2023-02-28T18:32:10.627Z,4.63
2023-02-28T18:34:40.170Z,4.82
2023-02-28T18:37:11.734Z,4.68
2023-02-28T18:39:40.719Z,4.59
2023-02-28T18:42:09.095Z,4.65
2023-02-28T18:44:39.100Z,4.47
2023-02-28T18:47:09.021Z,4.37
2023-02-28T18:49:38.111Z,4.38
2023-02-28T18:52:06.851Z,4.36
2023-02-28T18:54:36.647Z,4.66
2023-02-28T18:57:05.987Z,4.55
2023-02-28T18:59:34.690Z,4.50
2023-02-28T19:02:03.396Z,4.47
2023-02-28T19:04:33.417Z,4.44
2023-02-28T19:07:03.022Z,4.41
2023-02-28T19:09:32.465Z,4.35
2023-02-28T19:12:01.945Z,4.40
2023-02-28T19:14:32.305Z,4.39
2023-02-28T19:17:01.004Z,4.42
2023-02-28T19:19:30.969Z,4.24
2023-02-28T19:22:00.526Z,4.21
2023-02-28T19:24:30.092Z,4.24
2023-02-28T19:26:59.792Z,4.11
2023-02-28T19:29:29.282Z,4.26
2023-02-28T19:31:58.944Z,4.32
2023-02-28T19:34:28.586Z,4.46
2023-02-28T19:36:58.103Z,4.27
2023-02-28T19:39:26.848Z,4.25
2023-02-28T19:41:55.562Z,4.24
2023-02-28T19:44:25.201Z,4.01
2023-02-28T19:46:54.672Z,4.21
2023-02-28T19:49:25.973Z,4.21
2023-02-28T19:51:55.679Z,4.18
2023-02-28T19:54:26.666Z,4.24
2023-02-28T19:56:57.757Z,4.23
2023-02-28T19:59:38.325Z,4.30
2023-02-28T20:02:20.486Z,4.17
2023-02-28T20:04:58.713Z,4.20
2023-02-28T20:07:30.331Z,4.12
2023-02-28T20:10:00.939Z,4.40
2023-02-28T20:12:30.461Z,4.34
2023-02-28T20:15:00.007Z,4.04
2023-02-28T20:17:30.675Z,4.18
2023-02-28T20:19:59.378Z,4.09
2023-02-28T20:22:28.893Z,4.15
2023-02-28T20:24:58.391Z,4.03
2023-02-28T20:27:28.023Z,4.13
2023-02-28T20:29:57.461Z,4.09
2023-02-28T20:32:26.612Z,3.96
2023-02-28T20:34:55.322Z,4.22
2023-02-28T20:37:25.132Z,4.07
2023-02-28T20:39:54.693Z,4.03
2023-02-28T20:42:22.575Z,4.04
2023-02-28T20:44:53.008Z,4.07
2023-02-28T20:47:22.593Z,4.10
2023-02-28T20:49:52.181Z,4.07
2023-02-28T20:52:21.809Z,4.03
2023-02-28T20:54:51.360Z,4.14
2023-02-28T20:57:20.836Z,4.13
2023-02-28T20:59:50.356Z,3.97
2023-02-28T21:02:21.458Z,4.09
2023-02-28T21:04:51.025Z,4.20
2023-02-28T21:07:20.531Z,4.19
2023-02-28T21:09:50.110Z,4.15
2023-02-28T21:12:19.709Z,4.19
2023-02-28T21:14:49.313Z,3.94
2023-02-28T21:17:17.064Z,4.22
2023-02-28T21:19:47.174Z,4.41
2023-02-28T21:22:16.910Z,4.19
2023-02-28T21:24:46.491Z,4.18
2023-02-28T21:27:16.574Z,4.05
2023-02-28T21:29:46.079Z,3.95
2023-02-28T21:32:15.789Z,3.94
2023-02-28T21:34:44.562Z,4.05
2023-02-28T21:37:13.216Z,4.02
2023-02-28T21:39:42.680Z,3.99
2023-02-28T21:42:13.157Z,3.95
2023-02-28T21:44:41.952Z,3.94
2023-02-28T21:47:10.663Z,3.94
2023-02-28T21:49:40.134Z,3.98
2023-02-28T21:52:08.828Z,3.98
2023-02-28T21:54:38.370Z,4.10
2023-02-28T21:57:07.965Z,4.01
2023-02-28T21:59:37.690Z,4.02
2023-02-28T22:02:10.824Z,3.96
2023-02-28T22:04:40.388Z,4.00
2023-02-28T22:07:09.129Z,4.01
2023-02-28T22:09:38.671Z,4.04
2023-02-28T22:12:08.662Z,3.99
2023-02-28T22:14:41.830Z,4.09
2023-02-28T22:17:10.569Z,4.07
2023-02-28T22:19:39.415Z,4.05
2023-02-28T22:22:09.008Z,4.14
2023-02-28T22:24:38.608Z,4.14
2023-02-28T22:27:08.230Z,4.24
2023-02-28T22:29:37.756Z,4.26
2023-02-28T22:32:11.186Z,4.30
2023-02-28T22:34:41.138Z,4.28
2023-02-28T22:37:09.852Z,4.25
2023-02-28T22:39:39.492Z,4.37
2023-02-28T22:42:09.879Z,4.14
2023-02-28T22:44:38.535Z,4.09
2023-02-28T22:47:08.276Z,4.09
2023-02-28T22:49:37.929Z,4.19
2023-02-28T22:52:07.453Z,4.09
2023-02-28T22:54:36.970Z,4.31
2023-02-28T22:57:06.412Z,4.25
2023-02-28T22:59:35.920Z,4.37
2023-02-28T23:02:04.606Z,4.18
2023-02-28T23:04:33.389Z,4.17
2023-02-28T23:07:02.912Z,4.21
2023-02-28T23:09:31.624Z,4.04
2023-02-28T23:12:00.317Z,4.09
2023-02-28T23:14:29.025Z,4.22
2023-02-28T23:16:59.030Z,4.40
2023-02-28T23:19:31.163Z,4.45
2023-02-28T23:22:02.987Z,4.26
2023-02-28T23:24:34.967Z,4.29
2023-02-28T23:27:07.190Z,4.31
2023-02-28T23:29:37.417Z,4.39
2023-02-28T23:32:07.210Z,4.24
2023-02-28T23:34:36.816Z,4.20
2023-02-28T23:37:06.568Z,4.21
2023-02-28T23:39:36.041Z,3.97
2023-02-28T23:42:05.543Z,4.04
2023-02-28T23:44:35.314Z,4.07
2023-02-28T23:47:04.883Z,4.16
2023-02-28T23:49:33.653Z,4.15
2023-02-28T23:52:02.363Z,4.14
2023-02-28T23:54:31.244Z,4.11
2023-02-28T23:57:00.747Z,4.00
2023-02-28T23:59:30.254Z,4.05
